Flight Track Log - Related Links

Times and Time Zones

All times are in EST time to prevent confusion due to time zone crossing. See the N2145X flight status page for this flight to view local times or setup timezone preferences in your user account.

Time Position Orientation Groundspeed Altitude Reporting Facility
EST Latitude Longitude Course Direction KTS MPH feet Rate Location/Type
Fri 03:58:03 PM 39.1167 -94.6000 218° Southwest 103 119 1,400  Level Kansas City TRACON
Fri 03:59:15 PM 39.0833 -94.6333 218° Southwest 112 129 2,500 905 Climbing Kansas City TRACON
Fri 04:00:09 PM 39.0500 -94.6167 159° South 115 132 3,300 895 Climbing Kansas City TRACON
Fri 04:01:09 PM 39.0500 -94.5667 90° East 131 151 4,200 787 Climbing Kansas City TRACON
Fri 04:02:11 PM 39.0692 -94.5272 58° Northeast 148 170 4,900 629 Climbing Kansas City Center
Fri 04:03:13 PM 39.0892 -94.4769 63° Northeast 164 189 5,500 726 Climbing Kansas City Center
Fri 04:04:15 PM 39.1117 -94.4158 65° Northeast 169 194 6,400 726 Climbing Kansas City Center
Fri 04:05:17 PM 39.1328 -94.3661 61° Northeast 165 190 7,000 629 Climbing Kansas City Center
Fri 04:06:19 PM 39.1550 -94.3056 65° Northeast 167 192 7,700 581 Climbing Kansas City Center
Fri 04:07:21 PM 39.1764 -94.2556 61° Northeast 167 192 8,200 532 Climbing Kansas City Center
Fri 04:08:23 PM 39.2000 -94.1925 64° Northeast 174 200 8,800 387 Climbing Kansas City Center
Fri 04:09:25 PM 39.2217 -94.1389 62° Northeast 176 203 9,000 65 Climbing Kansas City Center
Fri 04:11:29 PM 39.2392 -93.9961 81° East 194 223 9,000  Level Kansas City Center
Fri 04:12:31 PM 39.2514 -93.9283 77° East 201 231 9,000  Level Kansas City Center
Fri 04:13:33 PM 39.2675 -93.8519 75° East 197 227 9,000  Level Kansas City Center
Fri 04:14:35 PM 39.2781 -93.7878 78° East 193 222 9,000  Level Kansas City Center
Fri 04:15:37 PM 39.2908 -93.7219 76° East 192 221 9,000  Level Kansas City Center
Fri 04:16:39 PM 39.3042 -93.6414 78° East 194 223 9,000  Level Kansas City Center
Fri 04:17:41 PM 39.3144 -93.5753 79° East 191 220 9,000  Level Kansas City Center
Fri 04:18:43 PM 39.3253 -93.5083 78° East 191 220 9,000  Level Kansas City Center
Fri 04:19:45 PM 39.3353 -93.4397 79° East 195 224 9,000  Level Kansas City Center
Fri 04:20:47 PM 39.3469 -93.3703 78° East 198 228 9,000  Level Kansas City Center
Fri 04:21:49 PM 39.3594 -93.2911 78° East 192 221 9,000  Level Kansas City Center
Fri 04:22:51 PM 39.3700 -93.2233 79° East 193 222 9,000  Level Kansas City Center
Fri 04:23:53 PM 39.3817 -93.1569 77° East 192 221 9,000  Level Kansas City Center
Fri 04:24:55 PM 39.3919 -93.0903 79° East 191 220 9,000 48 Level Kansas City Center
Fri 04:25:58 PM 39.4025 -93.0214 79° East 196 226 9,100 48 Climbing Kansas City Center
Fri 04:27:00 PM 39.4147 -92.9414 79° East 192 221 9,100  Level Kansas City Center
Fri 04:28:02 PM 39.4258 -92.8747 78° East 191 220 9,100  Level Kansas City Center
Fri 04:29:04 PM 39.4358 -92.8089 79° East 190 219 9,100  Level Kansas City Center
Fri 04:30:06 PM 39.4467 -92.7431 78° East 189 217 9,100  Level Kansas City Center
Fri 04:31:08 PM 39.4578 -92.6758 78° East 191 220 9,100  Level Kansas City Center
Fri 04:32:10 PM 39.4700 -92.5950 79° East 192 221 9,100  Level Kansas City Center
Fri 04:33:12 PM 39.4803 -92.5294 78° East 190 219 9,100  Level Kansas City Center
Fri 04:34:14 PM 39.4908 -92.4644 78° East 188 216 9,100  Level Kansas City Center
Fri 04:35:16 PM 39.5003 -92.3986 79° East 187 215 9,100  Level Kansas City Center
Fri 04:36:18 PM 39.5094 -92.3347 79° East 185 213 9,100  Level Kansas City Center
Fri 04:37:20 PM 39.5219 -92.2575 78° East 184 212 9,100  Level Kansas City Center
Fri 04:38:22 PM 39.5314 -92.1931 79° East 184 212 9,100  Level Kansas City Center
Fri 04:39:24 PM 39.5408 -92.1283 79° East 184 212 9,100  Level Kansas City Center
Fri 04:40:26 PM 39.5503 -92.0642 79° East 184 212 9,100  Level Kansas City Center
Fri 04:41:28 PM 39.5603 -91.9986 79° East 185 213 9,100  Level Kansas City Center
Fri 04:42:30 PM 39.5728 -91.9186 79° East 187 215 9,100  Level Kansas City Center
Fri 04:43:32 PM 39.5828 -91.8522 79° East 189 217 9,100  Level Kansas City Center
Fri 04:44:34 PM 39.5917 -91.7872 80° East 188 216 9,100  Level Kansas City Center
Fri 04:45:36 PM 39.6014 -91.7211 79° East 187 215 9,100  Level Kansas City Center
Fri 04:46:38 PM 39.6125 -91.6433 79° East 187 215 9,100  Level Kansas City Center
Fri 04:47:40 PM 39.6219 -91.5767 80° East 187 215 9,100  Level Kansas City Center
Fri 04:48:43 PM 39.6303 -91.5097 81° East 189 217 9,100  Level Kansas City Center
Fri 04:49:45 PM 39.6394 -91.4433 80° East 188 216 9,100  Level Kansas City Center
Fri 04:50:47 PM 39.6486 -91.3764 80° East 189 217 9,100  Level Kansas City Center
Fri 04:51:49 PM 39.6592 -91.3050 79° East 189 217 9,100  Level Kansas City Center
Fri 04:52:51 PM 39.6686 -91.2383 80° East 189 217 9,100  Level Kansas City Center
Fri 04:53:53 PM 39.6783 -91.1706 79° East 190 219 9,100  Level Kansas City Center
Fri 04:54:55 PM 39.6883 -91.0911 81° East 188 216 9,100  Level Kansas City Center
Fri 04:55:57 PM 39.6981 -91.0256 79° East 186 214 9,100  Level Kansas City Center
Fri 04:56:59 PM 39.7067 -90.9586 80° East 187 215 9,100  Level Kansas City Center
Fri 04:58:01 PM 39.7172 -90.8908 79° East 190 219 9,100  Level Kansas City Center
Fri 04:59:03 PM 39.7261 -90.8267 80° East 185 213 9,100  Level Kansas City Center
Fri 05:00:05 PM 39.7353 -90.7619 80° East 183 211 9,100  Level Kansas City Center
Fri 05:01:07 PM 39.7453 -90.6819 81° East 186 214 9,100 -48 Level Kansas City Center
Fri 05:02:09 PM 39.7533 -90.6186 81° East 186 214 9,000 -48 Descending Kansas City Center
Fri 05:03:11 PM 39.7633 -90.5517 79° East 188 216 9,000  Level Kansas City Center
Fri 05:04:13 PM 39.7725 -90.4839 80° East 190 219 9,000  Level Kansas City Center
Fri 05:05:15 PM 39.7814 -90.4186 80° East 186 214 9,000  Level Kansas City Center
Fri 05:06:17 PM 39.7922 -90.3397 80° East 185 213 9,000  Level Kansas City Center
Fri 05:07:19 PM 39.8017 -90.2736 79° East 186 214 9,000  Level Kansas City Center
Fri 05:08:21 PM 39.8097 -90.2086 81° East 184 212 9,000  Level Kansas City Center
Fri 05:09:23 PM 39.8189 -90.1442 79° East 182 209 9,000  Level Kansas City Center
Fri 05:10:25 PM 39.8278 -90.0767 80° East 186 214 9,000  Level Kansas City Center
Fri 05:11:27 PM 39.8378 -89.9989 80° East 185 213 9,000  Level Kansas City Center
Fri 05:12:29 PM 39.8464 -89.9336 80° East 184 212 9,000  Level Kansas City Center
Fri 05:13:32 PM 39.8550 -89.8689 80° East 182 209 9,000  Level Kansas City Center
Fri 05:14:34 PM 39.8642 -89.8050 79° East 182 209 9,000  Level Kansas City Center
Fri 05:15:36 PM 39.8742 -89.7408 79° East 181 208 9,000  Level Kansas City Center
Fri 05:16:38 PM 39.8822 -89.6781 80° East 179 206 9,000  Level Kansas City Center
Fri 05:17:40 PM 39.8928 -89.6025 80° East 178 205 9,000  Level Kansas City Center
Fri 05:18:42 PM 39.8989 -89.5367 83° East 180 207 9,000  Level Kansas City Center
Fri 05:19:44 PM 39.9058 -89.4711 82° East 182 209 9,000  Level Kansas City Center
Fri 05:20:46 PM 39.9125 -89.4069 82° East 181 208 9,000  Level Kansas City Center
Fri 05:21:48 PM 39.9206 -89.3431 81° East 179 206 9,000 194 Level Kansas City Center
Fri 05:22:50 PM 39.9292 -89.2822 80° East 175 201 9,400 532 Climbing Kansas City Center
Fri 05:23:52 PM 39.9392 -89.2139 79° East 163 188 10,100 532 Climbing Kansas City Center
Fri 05:24:54 PM 39.9475 -89.1564 79° East 162 186 10,500 387 Climbing Kansas City Center
Fri 05:25:56 PM 39.9547 -89.0967 81° East 164 189 10,900 290 Climbing Kansas City Center
Fri 05:26:58 PM 39.9622 -89.0358 81° East 168 193 11,100 97 Climbing Kansas City Center
Fri 05:28:00 PM 39.9694 -88.9672 82° East 183 211 11,100  Level Kansas City Center
Fri 05:29:02 PM 39.9786 -88.8978 80° East 192 221 11,100 -48 Level Kansas City Center
Fri 05:30:04 PM 39.9886 -88.8161 81° East 192 221 11,000  Descending Kansas City Center
Fri 05:31:06 PM 39.9969 -88.7500 81° East 187 215 11,100  Climbing Kansas City Center
Fri 05:32:08 PM 40.0042 -88.6833 82° East 187 215 11,000  Descending Kansas City Center
Fri 05:33:10 PM 40.0133 -88.6153 80° East 189 217 11,100 48 Climbing Kansas City Center
Fri 05:34:12 PM 40.0175 -88.5514 85° East 181 208 11,100 -48 Level Kansas City Center
Fri 05:35:14 PM 40.0261 -88.4856 80° East 182 209 11,000 -48 Descending Kansas City Center
Fri 05:36:17 PM 40.0339 -88.4075 83° East 182 209 11,000 48 Level Kansas City Center
Fri 05:37:19 PM 40.0406 -88.3414 82° East 182 209 11,100  Climbing Kansas City Center
Fri 05:38:21 PM 40.0486 -88.2758 81° East 183 211 11,000 -48 Descending Kansas City Center
Fri 05:39:23 PM 40.0544 -88.2108 83° East 182 209 11,000 48 Level Kansas City Center
Fri 05:40:25 PM 40.0642 -88.1425 79° East 184 212 11,100  Climbing Kansas City Center
Fri 05:41:27 PM 40.0697 -88.0814 83° East 179 206 11,000  Descending Kansas City Center
Fri 05:42:29 PM 40.0792 -88.0022 81° East 181 208 11,100 48 Climbing Kansas City Center
Fri 05:43:31 PM 40.0872 -87.9358 81° East 185 213 11,100  Level Kansas City Center
Fri 05:44:54 PM 40.0997 -87.8425 80° East 182 209 11,100 -41 Level Chicago Center
Fri 05:45:56 PM 40.1094 -87.7692 80° East 187 215 11,000 -32 Descending Chicago Center
Fri 05:48:00 PM 40.1233 -87.6381 82° East 185 213 11,000 32 Level Chicago Center
Fri 05:49:02 PM 40.1311 -87.5722 81° East 185 213 11,100 48 Climbing Chicago Center
Fri 05:50:04 PM 40.1389 -87.5075 81° East 183 211 11,100  Level Chicago Center
Fri 05:51:06 PM 40.1475 -87.4419 80° East 183 211 11,100  Level Chicago Center
Fri 05:52:08 PM 40.1561 -87.3656 82° East 180 207 11,100  Level Chicago Center
Fri 05:53:10 PM 40.1633 -87.3008 82° East 180 207 11,100  Level Chicago Center
Fri 05:54:13 PM 40.1719 -87.2347 80° East 184 212 11,100 -48 Level Chicago Center
Fri 05:55:15 PM 40.1786 -87.1697 82° East 183 211 11,000  Descending Chicago Center
Fri 05:56:17 PM 40.1850 -87.1050 83° East 181 208 11,100 48 Climbing Chicago Center
Fri 05:57:19 PM 40.1942 -87.0283 81° East 179 206 11,100  Level Chicago Center
Fri 05:58:21 PM 40.2017 -86.9631 81° East 183 211 11,100  Level Chicago Center
Fri 05:59:24 PM 40.2081 -86.8975 83° East 183 211 11,100 -48 Level Chicago Center
Fri 06:00:26 PM 40.2150 -86.8308 82° East 185 213 11,000  Descending Chicago Center
Fri 06:01:28 PM 40.2231 -86.7575 82° East 183 211 11,100 48 Climbing Chicago Center
Fri 06:02:30 PM 40.2292 -86.6931 83° East 181 208 11,100 -48 Level Chicago Center
Fri 06:03:32 PM 40.2344 -86.6272 84° East 181 208 11,000  Descending Chicago Center
Fri 06:04:35 PM 40.2419 -86.5636 81° East 180 207 11,100 48 Climbing Chicago Center
Fri 06:05:37 PM 40.2483 -86.4992 83° East 179 206 11,100  Level Chicago Center
Fri 06:06:39 PM 40.2564 -86.4186 83° East 182 209 11,100 -48 Level Chicago Center
Fri 06:07:41 PM 40.2628 -86.3514 83° East 187 215 11,000 -48 Descending Chicago Center
Fri 06:08:43 PM 40.2686 -86.2861 83° East 185 213 11,000  Level Chicago Center
Fri 06:09:45 PM 40.2728 -86.2169 85° East 187 215 11,000  Level Chicago Center
Fri 06:10:47 PM 40.2789 -86.1492 83° East 189 217 11,000  Level Chicago Center
Fri 06:11:49 PM 40.2839 -86.0683 85° East 187 215 11,000  Level Chicago Center
Fri 06:12:51 PM 40.2864 -86.0025 87° East 185 213 11,000 48 Level Chicago Center
Fri 06:13:53 PM 40.2917 -85.9350 84° East 184 212 11,100 48 Climbing Chicago Center
Fri 06:14:55 PM 40.2972 -85.8694 84° East 184 212 11,100  Level Chicago Center
Fri 06:15:58 PM 40.3094 -85.8036 76° East 186 214 11,100  Level Chicago Center
Fri 06:17:00 PM 40.3231 -85.7389 75° East 186 214 11,100  Level Chicago Center
Fri 06:18:02 PM 40.3339 -85.6614 80° East 183 211 11,100  Level Chicago Center
Fri 06:19:04 PM 40.3408 -85.5953 82° East 183 211 11,100 -48 Level Chicago Center
Fri 06:20:06 PM 40.3444 -85.5283 86° East 186 214 11,000 -48 Descending Chicago Center
Fri 06:21:08 PM 40.3492 -85.4586 85° East 190 219 11,000  Level Chicago Center
Fri 06:22:12 PM 40.3547 -85.3906 84° East 183 211 11,000  Level Indianapolis Center
Fri 06:23:14 PM 40.3611 -85.3244 83° East 183 211 11,000  Level Indianapolis Center
Fri 06:24:16 PM 40.3681 -85.2578 82° East 184 212 11,000 48 Level Indianapolis Center
Fri 06:25:18 PM 40.3756 -85.1772 83° East 185 213 11,100 48 Climbing Indianapolis Center
Fri 06:26:20 PM 40.3817 -85.1128 83° East 183 211 11,100  Level Indianapolis Center
Fri 06:27:22 PM 40.3864 -85.0481 85° East 181 208 11,100  Level Indianapolis Center
Fri 06:28:24 PM 40.3922 -84.9817 83° East 181 208 11,100  Level Indianapolis Center
Fri 06:29:26 PM 40.3978 -84.9178 83° East 180 207 11,100  Level Indianapolis Center
Fri 06:30:28 PM 40.4036 -84.8375 85° East 182 209 11,100  Level Indianapolis Center
Fri 06:31:30 PM 40.4094 -84.7714 83° East 182 209 11,100  Level Indianapolis Center
Fri 06:32:32 PM 40.4147 -84.7061 84° East 182 209 11,100  Level Indianapolis Center
Fri 06:33:34 PM 40.4197 -84.6400 84° East 181 208 11,100  Level Indianapolis Center
Fri 06:34:36 PM 40.4256 -84.5747 83° East 181 208 11,100  Level Indianapolis Center
Fri 06:35:38 PM 40.4317 -84.5092 83° East 181 208 11,100  Level Indianapolis Center
Fri 06:36:41 PM 40.4375 -84.4311 84° East 180 207 11,100  Level Indianapolis Center
Fri 06:37:43 PM 40.4444 -84.3647 82° East 182 209 11,100  Level Indianapolis Center
Fri 06:38:45 PM 40.4492 -84.2992 85° East 181 208 11,100  Level Indianapolis Center
Fri 06:39:47 PM 40.4558 -84.2322 83° East 184 212 11,100  Level Indianapolis Center
Fri 06:40:49 PM 40.4597 -84.1658 86° East 182 209 11,100  Level Indianapolis Center
Fri 06:41:51 PM 40.4653 -84.0969 84° East 187 215 11,100  Level Indianapolis Center
Fri 06:42:53 PM 40.4711 -84.0289 84° East 188 216 11,100  Level Indianapolis Center
Fri 06:43:55 PM 40.4769 -83.9497 84° East 183 211 11,100  Level Indianapolis Center
Fri 06:44:57 PM 40.4814 -83.8814 85° East 186 214 11,100  Level Indianapolis Center
Fri 06:45:59 PM 40.4858 -83.8153 85° East 183 211 11,100  Level Indianapolis Center
Fri 06:47:01 PM 40.4903 -83.7481 85° East 184 212 11,100  Level Indianapolis Center
Fri 06:48:03 PM 40.4961 -83.6806 83° East 185 213 11,100  Level Indianapolis Center
Fri 06:49:05 PM 40.5003 -83.6136 85° East 184 212 11,100  Level Indianapolis Center
Fri 06:50:07 PM 40.5067 -83.5322 84° East 185 213 11,100  Level Indianapolis Center
Fri 06:51:09 PM 40.5114 -83.4644 85° East 186 214 11,100 -48 Level Indianapolis Center
Fri 06:52:11 PM 40.5169 -83.3986 84° East 182 209 11,000 -48 Descending Indianapolis Center
Fri 06:53:13 PM 40.5211 -83.3336 85° East 180 207 11,000  Level Indianapolis Center
Fri 06:54:15 PM 40.5256 -83.2681 85° East 180 207 11,000  Level Indianapolis Center
Fri 06:55:17 PM 40.5289 -83.2019 86° East 182 209 11,000 48 Level Indianapolis Center
Fri 06:56:19 PM 40.5325 -83.1336 86° East 177 204 11,100 49 Climbing Indianapolis Center
Fri 06:57:20 PM 40.5372 -83.0664 85° East 182 209 11,100  Level Indianapolis Center
Fri 06:58:22 PM 40.5419 -82.9869 86° East 183 211 11,100  Level Indianapolis Center
Fri 06:59:24 PM 40.5464 -82.9203 85° East 183 211 11,100  Level Indianapolis Center
Fri 07:00:26 PM 40.5514 -82.8544 84° East 180 207 11,100  Level Indianapolis Center
Fri 07:01:28 PM 40.5558 -82.7875 85° East 182 209 11,100  Level Indianapolis Center
Fri 07:02:29 PM 40.5600 -82.7222 85° East 179 206 11,100  Level Indianapolis Center
Fri 07:03:31 PM 40.5633 -82.6558 86° East 181 208 11,100  Level Indianapolis Center
Fri 07:04:33 PM 40.5664 -82.5894 87° East 181 208 11,100  Level Indianapolis Center
Fri 07:05:35 PM 40.5703 -82.5217 86° East 183 211 11,100  Level Indianapolis Center
Fri 07:06:37 PM 40.5750 -82.4433 85° East 183 211 11,100  Level Indianapolis Center
Fri 07:08:16 PM 40.5831 -82.3428 84° East 183 211 11,100  Level Cleveland Center
Fri 07:09:18 PM 40.5878 -82.2653 85° East 182 209 11,100  Level Cleveland Center
Fri 07:10:20 PM 40.5911 -82.1992 86° East 181 208 11,100  Level Cleveland Center
Fri 07:11:22 PM 40.5942 -82.1333 86° East 180 207 11,100  Level Cleveland Center
Fri 07:12:24 PM 40.5989 -82.0667 85° East 182 209 11,100  Level Cleveland Center
Fri 07:13:26 PM 40.6025 -82.0006 86° East 182 209 11,100  Level Cleveland Center
Fri 07:14:28 PM 40.6064 -81.9328 86° East 185 213 11,100  Level Cleveland Center
Fri 07:15:29 PM 40.6111 -81.8653 85° East 184 212 11,100  Level Cleveland Center
Fri 07:16:31 PM 40.6150 -81.7978 86° East 183 211 11,100  Level Cleveland Center
Fri 07:17:33 PM 40.6203 -81.7186 85° East 184 212 11,100  Level Cleveland Center
Fri 07:18:35 PM 40.6239 -81.6511 86° East 184 212 11,100  Level Cleveland Center
Fri 07:19:37 PM 40.6283 -81.5842 85° East 183 211 11,100  Level Cleveland Center
Fri 07:20:39 PM 40.6347 -81.5169 83° East 183 211 11,100  Level Cleveland Center
Fri 07:21:40 PM 40.6408 -81.4492 83° East 185 213 11,100  Level Cleveland Center
Fri 07:22:42 PM 40.6469 -81.3803 83° East 188 216 11,100  Level Cleveland Center
Fri 07:23:44 PM 40.6517 -81.3119 85° East 186 214 11,100  Level Cleveland Center
Fri 07:24:46 PM 40.6569 -81.2322 85° East 186 214 11,100  Level Cleveland Center
Fri 07:25:48 PM 40.6608 -81.1628 86° East 188 216 11,100  Level Cleveland Center
Fri 07:26:50 PM 40.6642 -81.0947 86° East 186 214 11,100  Level Cleveland Center
Fri 07:27:52 PM 40.6678 -81.0356 85° East 184 212 11,100  Level Cleveland Center
Fri 07:28:53 PM 40.6708 -80.9533 87° East 186 214 11,100  Level Cleveland Center
Fri 07:29:55 PM 40.6747 -80.8850 86° East 187 215 11,100  Level Cleveland Center
Fri 07:30:57 PM 40.6753 -80.8178 89° East 186 214 11,100  Level Cleveland Center
Fri 07:31:59 PM 40.6819 -80.7508 82° East 185 213 11,100  Level Cleveland Center
Fri 07:33:01 PM 40.7022 -80.6772 70° East 187 215 11,100  Level Cleveland Center
Fri 07:34:03 PM 40.7222 -80.6139 67° East 186 214 11,100  Level Cleveland Center
Fri 07:35:05 PM 40.7408 -80.5475 70° East 191 220 11,100  Level Cleveland Center
Fri 07:36:07 PM 40.7653 -80.4861 62° Northeast 188 216 11,100  Level Cleveland Center
Fri 07:37:09 PM 40.7900 -80.4239 62° Northeast 189 217 11,100  Level Cleveland Center
Fri 07:38:10 PM 40.8142 -80.3631 62° Northeast 187 215 11,100  Level Cleveland Center
Fri 07:39:12 PM 40.8411 -80.2944 63° Northeast 189 217 11,100  Level Cleveland Center
Fri 07:40:14 PM 40.8664 -80.2278 63° Northeast 188 216 11,100  Level Cleveland Center
Fri 07:41:16 PM 40.8858 -80.1725 65° Northeast 191 220 11,100  Level Cleveland Center
Fri 07:42:18 PM 40.9094 -80.1094 64° Northeast 192 221 11,100  Level Cleveland Center
Fri 07:43:20 PM 40.9361 -80.0325 65° Northeast 193 222 11,100  Level Cleveland Center
Fri 07:44:22 PM 40.9578 -79.9678 66° East 192 221 11,100  Level Cleveland Center
Fri 07:45:24 PM 40.9767 -79.9028 69° East 190 219 11,100  Level Cleveland Center
Fri 07:46:26 PM 40.9967 -79.8369 68° East 192 221 11,100  Level Cleveland Center
Fri 07:47:28 PM 41.0153 -79.7711 69° East 191 220 11,100  Level Cleveland Center
Fri 07:48:29 PM 41.0344 -79.7044 69° East 193 222 11,100  Level Cleveland Center
Fri 07:49:31 PM 41.0539 -79.6225 73° East 194 223 11,100 -48 Level Cleveland Center
Fri 07:50:33 PM 41.0689 -79.5522 74° East 197 227 11,000  Descending Cleveland Center
Fri 07:51:35 PM 41.0839 -79.4856 73° East 191 220 11,100 48 Climbing Cleveland Center
Fri 07:52:37 PM 41.1006 -79.4164 72° East 196 226 11,100  Level Cleveland Center
Fri 07:53:40 PM 41.1181 -79.3481 71° East 197 227 11,100  Level Cleveland Center
Fri 07:54:42 PM 41.1156 -79.2786 93° East 189 217 11,100  Level Cleveland Center
Fri 07:55:44 PM 41.1100 -79.1961 95° East 187 215 11,100  Level Cleveland Center
Fri 07:56:46 PM 41.1058 -79.1294 95° East 182 209 11,100  Level Cleveland Center
Fri 07:57:48 PM 41.0992 -79.0597 97° East 188 216 11,100  Level Cleveland Center
Fri 07:58:50 PM 41.0956 -78.9881 94° East 194 223 11,100  Level Cleveland Center
Fri 07:59:53 PM 41.0919 -78.9147 94° East 198 228 11,100  Level Cleveland Center
Fri 08:00:55 PM 41.0903 -78.8433 92° East 195 224 11,100  Level Cleveland Center
Fri 08:01:57 PM 41.0889 -78.7572 91° East 194 223 11,100  Level Cleveland Center
Fri 08:02:59 PM 41.0875 -78.6872 91° East 192 221 11,100  Level Cleveland Center
Fri 08:04:01 PM 41.0861 -78.6178 91° East 190 219 11,100  Level Cleveland Center
Fri 08:05:03 PM 41.0794 -78.5506 97° East 184 212 11,100 -48 Level Cleveland Center
Fri 08:06:06 PM 41.0706 -78.4828 100° East 186 214 11,000 -48 Descending Cleveland Center
Fri 08:07:08 PM 41.0622 -78.4153 99° East 187 215 11,000 48 Level Cleveland Center
Fri 08:08:10 PM 41.0519 -78.3331 99° East 188 216 11,100 -48 Climbing Cleveland Center
Fri 08:09:12 PM 41.0453 -78.2653 97° East 188 216 10,900 -387 Descending Cleveland Center
Fri 08:10:14 PM 41.0400 -78.1989 96° East 184 212 10,300 -532 Descending Cleveland Center
Fri 08:11:16 PM 41.0364 -78.1297 94° East 188 216 9,800 -484 Descending Cleveland Center
Fri 08:12:18 PM 41.0303 -78.0642 97° East 182 209 9,300 -387 Descending Cleveland Center
Fri 08:13:20 PM 41.0242 -77.9792 95° East 193 222 9,000 -145 Descending Cleveland Center
Fri 08:14:22 PM 41.0161 -77.9056 98° East 200 230 9,000  Level Cleveland Center
Fri 08:15:24 PM 41.0064 -77.8314 100° East 205 236 9,000  Level Cleveland Center
Fri 08:16:26 PM 40.9975 -77.7578 99° East 205 236 9,000  Level Cleveland Center
Fri 08:17:28 PM 40.9878 -77.6858 100° East 200 230 9,000  Level Cleveland Center
Fri 08:18:30 PM 40.9731 -77.6011 103° East 199 229 9,000  Level Cleveland Center
Fri 08:19:32 PM 40.9603 -77.5256 103° East 198 228 9,000  Level New York Center
Fri 08:20:32 PM 40.9519 -77.4558 99° East 198 228 9,000  Level New York Center
Fri 08:21:32 PM 40.9456 -77.3839 97° East 198 228 9,000  Level New York Center
Fri 08:22:32 PM 40.9386 -77.3172 98° East 198 228 9,000  Level New York Center
Fri 08:23:32 PM 40.9303 -77.2450 99° East 198 228 9,000  Level New York Center
Fri 08:24:32 PM 40.9194 -77.1725 101° East 198 228 9,000  Level New York Center
Fri 08:25:32 PM 40.9106 -77.1058 100° East 198 228 9,000  Level New York Center
Fri 08:26:32 PM 40.9042 -77.0336 97° East 198 228 9,000  Level New York Center
Fri 08:27:32 PM 40.8950 -76.9669 100° East 193 222 9,000  Level New York Center
Fri 08:28:32 PM 40.8847 -76.8864 100° East 193 222 9,000  Level New York Center
Fri 08:29:32 PM 40.8797 -76.8228 96° East 193 222 9,000  Level New York Center
Fri 08:30:32 PM 40.8706 -76.7533 100° East 198 228 9,000  Level New York Center
Fri 08:31:32 PM 40.8597 -76.6783 101° East 193 222 9,000  Level New York Center
Fri 08:32:32 PM 40.8508 -76.6064 99° East 193 222 9,000  Level New York Center
Fri 08:33:32 PM 40.8417 -76.5369 100° East 193 222 9,000  Level New York Center
Fri 08:34:32 PM 40.8342 -76.4758 99° East 183 211 9,000  Level New York Center
Fri 08:35:32 PM 40.8250 -76.4092 100° East 183 211 9,000  Level New York Center
Fri 08:36:32 PM 40.8119 -76.3342 103° East 183 211 9,000  Level New York Center
Fri 08:37:32 PM 40.8025 -76.2675 101° East 183 211 9,000  Level New York Center
Fri 08:38:32 PM 40.7911 -76.1981 102° East 183 211 9,000  Level New York Center
Fri 08:39:32 PM 40.7814 -76.1372 102° East 183 211 9,000  Level New York Center
Fri 08:40:32 PM 40.7697 -76.0703 103° East 183 211 9,000  Level New York Center
Fri 08:41:32 PM 40.7586 -75.9956 101° East 183 211 9,000 50 Level New York Center
Fri 08:42:32 PM 40.7469 -75.9289 103° East 183 211 9,100 50 Climbing New York Center
Fri 08:43:32 PM 40.7333 -75.8594 104° East 183 211 9,100 -150 Level New York Center
Fri 08:44:32 PM 40.7233 -75.8011 103° East 183 211 8,800 -450 Descending New York Center
Fri 08:45:32 PM 40.7100 -75.7181 102° East 194 223 8,200 -550 Descending New York Center
Fri 08:46:32 PM 40.7092 -75.6414 91° East 203 234 7,700 -350 Descending New York Center
Fri 08:47:32 PM 40.7039 -75.5669 95° East 203 234 7,500 -100 Descending New York Center
Fri 08:48:32 PM 40.7022 -75.5039 92° East 198 228 7,500  Level New York Center
Fri 08:49:32 PM 40.6986 -75.4353 94° East 198 228 7,500  Level New York Center
Fri 08:50:32 PM 40.6931 -75.3664 96° East 198 228 7,500  Level New York Center
Fri 08:51:32 PM 40.6917 -75.2953 91° East 198 228 7,500 50 Level New York Center
Fri 08:52:32 PM 40.6900 -75.2267 92° East 198 228 7,600  Climbing New York Center
Fri 08:54:11 PM 40.6833 -75.1000 94° East 190 219 7,500  Descending New York TRACON
Fri 08:55:11 PM 40.6833 -75.0333 90° East 193 222 7,600  Climbing New York TRACON
Fri 08:56:11 PM 40.6833 -74.9667 90° East 191 220 7,500  Descending New York TRACON
Fri 08:57:17 PM 40.6833 -74.8833 90° East 192 221 7,600 48 Climbing New York TRACON
Fri 08:58:17 PM 40.6833 -74.8167 90° East 194 223 7,600  Level New York TRACON
Fri 08:59:17 PM 40.6833 -74.7500 90° East 192 221 7,600 -48 Level New York TRACON
Fri 09:00:23 PM 40.6833 -74.6667 90° East 193 222 7,500  Descending New York TRACON
Fri 09:01:23 PM 40.6667 -74.6000 108° East 192 221 7,600 50 Climbing New York TRACON
Fri 09:02:23 PM 40.6833 -74.5333 72° East 194 223 7,600  Level New York TRACON
Fri 09:03:19 PM 40.6833 -74.4667 90° East 195 224 7,600 -53 Level New York TRACON
Fri 09:04:17 PM 40.6833 -74.4000 90° East 190 219 7,500 -50 Descending New York TRACON
Fri 09:05:19 PM 40.6667 -74.3333 108° East 189 217 7,500  Level New York TRACON
Fri 09:06:17 PM 40.6667 -74.2667 90° East 184 212 7,500  Level New York TRACON
Fri 09:07:18 PM 40.6500 -74.2000 108° East 194 223 7,500  Level New York TRACON
Fri 09:08:17 PM 40.6500 -74.1167 90° East 191 220 7,500 48 Level New York TRACON
Fri 09:09:23 PM 40.6500 -74.0500 90° East 194 223 7,600  Climbing New York TRACON
Fri 09:10:17 PM 40.6333 -73.9833 108° East 193 222 7,500  Descending New York TRACON
Fri 09:11:17 PM 40.6333 -73.9167 90° East 193 222 7,600 -300 Climbing New York TRACON
Fri 09:12:17 PM 40.6333 -73.8333 90° East 186 214 6,900 -550 Descending New York TRACON
Fri 09:13:17 PM 40.6333 -73.7833 90° East 170 196 6,500 -500 Descending New York TRACON
Fri 09:14:17 PM 40.6333 -73.7000 90° East 194 223 5,900 -476 Descending New York TRACON
Fri 09:15:23 PM 40.6167 -73.6167 105° East 197 227 5,500 -429 Descending New York TRACON
Fri 09:16:23 PM 40.6167 -73.5500 90° East 190 219 5,000 -500 Descending New York TRACON
Fri 09:17:23 PM 40.6167 -73.4833 90° East 190 219 4,500 -526 Descending New York TRACON
Fri 09:18:17 PM 40.6167 -73.4167 90° East 201 231 4,000 -500 Descending New York TRACON
Fri 09:19:11 PM 40.6333 -73.3500 72° East 200 230 3,600 -250 Descending New York TRACON
Fri 09:20:17 PM 40.6500 -73.2667 75° East 190 219 3,500 -238 Descending New York TRACON
Fri 09:21:17 PM 40.6667 -73.2167 66° East 190 219 3,100 -250 Descending New York TRACON
Fri 09:22:17 PM 40.7000 -73.1500 57° Northeast 172 198 3,000 -50 Descending New York TRACON
Fri 09:23:17 PM 40.7167 -73.1000 66° East 175 201 3,000 -250 Level New York TRACON
Fri 09:24:17 PM 40.7500 -73.0500 49° Northeast 160 184 2,500 -450 Descending New York TRACON
Fri 09:25:17 PM 40.7833 -73.0167 37° Northeast 153 176 2,100 -316 Descending New York TRACON
Fri 09:26:11 PM 40.8167 -72.9833 37° Northeast 145 167 1,900 -316 Descending New York TRACON
Fri 09:27:11 PM 40.8333 -73.0167 303° West 112 129 1,500 -350 Descending New York TRACON
Fri 09:28:11 PM 40.8333 -73.0500 270° West 104 120 1,200 -400 Descending New York TRACON
Fri 09:29:11 PM 40.8167 -73.0667 217° Southwest 76 87 700 -381 Descending New York TRACON
Fri 09:30:17 PM 40.8167 -73.0833 270° West 65 75 400 -273 Descending New York TRACON
Fri 09:32:00 PM 40.7952 -73.1002 259° West  Level Estimated
Fri 09:39:00 PM 40.7952 -73.1002 90° East  Level Estimated

Login

Don't have an account? Register now (free) for customized features, flight alerts, and more!